createdAt,value
2017-05-26T00:00:02.874Z,1024.64
2017-05-26T00:01:24.403Z,1024.61
2017-05-26T00:02:46.306Z,1024.63
2017-05-26T00:04:08.163Z,1024.64
2017-05-26T00:05:30.348Z,1024.68
2017-05-26T00:06:52.224Z,1024.68
2017-05-26T00:08:14.464Z,1024.65
2017-05-26T00:09:36.304Z,1024.69
2017-05-26T00:10:58.503Z,1024.7
2017-05-26T00:12:20.725Z,1024.71
2017-05-26T00:13:42.876Z,1024.7
2017-05-26T00:15:04.393Z,1024.69
2017-05-26T00:16:26.545Z,1024.75
2017-05-26T00:17:48.489Z,1024.75
2017-05-26T00:19:09.772Z,1024.77
2017-05-26T00:20:32.273Z,1024.8
2017-05-26T00:21:54.673Z,1024.77
2017-05-26T00:23:16.514Z,1024.77
2017-05-26T00:24:38.673Z,1024.77
2017-05-26T00:26:00.577Z,1024.74
2017-05-26T00:27:22.814Z,1024.82
2017-05-26T00:28:45.084Z,1024.83
2017-05-26T00:30:06.904Z,1024.79
2017-05-26T00:31:28.421Z,1024.81
2017-05-26T00:32:50.032Z,1024.81
2017-05-26T00:34:12.638Z,1024.86
2017-05-26T00:35:35.096Z,1024.87
2017-05-26T00:36:56.922Z,1024.87
2017-05-26T00:38:19.423Z,1024.83
2017-05-26T00:39:40.724Z,1024.85
2017-05-26T00:41:02.885Z,1024.79
2017-05-26T00:42:24.715Z,1024.82
2017-05-26T00:43:47.159Z,1024.8
2017-05-26T00:45:09.098Z,1024.76
2017-05-26T00:46:30.934Z,1024.77
2017-05-26T00:47:53.101Z,1024.73
2017-05-26T00:49:14.976Z,1024.79
2017-05-26T00:50:37.533Z,1024.8
2017-05-26T00:51:59.125Z,1024.76
2017-05-26T00:53:20.660Z,1024.72
2017-05-26T00:54:43.443Z,1024.71
2017-05-26T00:56:05.693Z,1024.73
2017-05-26T00:57:28.212Z,1024.74
2017-05-26T00:58:50.364Z,1024.74
2017-05-26T01:00:13.201Z,1024.72
2017-05-26T01:01:35.061Z,1024.78
2017-05-26T01:02:56.902Z,1024.79
2017-05-26T01:04:18.735Z,1024.8
2017-05-26T01:05:40.532Z,1024.79
2017-05-26T01:07:02.371Z,1024.79
2017-05-26T01:08:24.528Z,1024.85
2017-05-26T01:09:46.373Z,1024.82
2017-05-26T01:11:08.822Z,1024.83
2017-05-26T01:12:30.649Z,1024.8
2017-05-26T01:13:52.797Z,1024.83
2017-05-26T01:15:14.955Z,1024.81
2017-05-26T01:16:37.721Z,1024.81
2017-05-26T01:17:59.876Z,1024.8
2017-05-26T01:19:22.071Z,1024.82
2017-05-26T01:20:43.908Z,1024.77
2017-05-26T01:22:06.411Z,1024.8
2017-05-26T01:23:27.722Z,1024.82
2017-05-26T01:24:49.219Z,1024.78
2017-05-26T01:26:11.382Z,1024.82
2017-05-26T01:27:34.264Z,1024.78
2017-05-26T01:28:56.111Z,1024.74
2017-05-26T01:30:18.489Z,1024.78
2017-05-26T01:31:40.311Z,1024.73
2017-05-26T01:33:02.124Z,1024.78
2017-05-26T01:34:24.052Z,1024.75
2017-05-26T01:35:45.882Z,1024.77
2017-05-26T01:37:08.021Z,1024.74
2017-05-26T01:38:30.514Z,1024.73
2017-05-26T01:39:52.411Z,1024.76
2017-05-26T01:41:14.558Z,1024.71
2017-05-26T01:42:36.395Z,1024.72
2017-05-26T01:43:58.004Z,1024.73
2017-05-26T01:45:19.860Z,1024.71
2017-05-26T01:46:41.381Z,1024.73
2017-05-26T01:48:03.220Z,1024.69
2017-05-26T01:49:26.031Z,1024.73
2017-05-26T01:50:48.503Z,1024.71
2017-05-26T01:52:10.990Z,1024.76
2017-05-26T01:53:33.469Z,1024.76
2017-05-26T01:54:55.928Z,1024.74
2017-05-26T01:56:18.241Z,1024.69
2017-05-26T01:57:40.081Z,1024.69
2017-05-26T01:59:01.681Z,1024.65
2017-05-26T02:00:23.566Z,1024.7
2017-05-26T02:01:45.652Z,1024.68
2017-05-26T02:03:07.781Z,1024.61
2017-05-26T02:04:29.603Z,1024.64
2017-05-26T02:05:52.381Z,1024.64
2017-05-26T02:07:14.293Z,1024.62
2017-05-26T02:08:36.122Z,1024.6
2017-05-26T02:09:58.641Z,1024.58
2017-05-26T02:11:21.458Z,1024.62
2017-05-26T02:12:43.660Z,1024.68
2017-05-26T02:14:05.511Z,1024.69
2017-05-26T02:15:27.656Z,1024.66
2017-05-26T02:16:50.432Z,1024.63
2017-05-26T02:18:12.572Z,1024.72
2017-05-26T02:19:34.841Z,1024.64
2017-05-26T02:20:56.681Z,1024.69
2017-05-26T02:22:18.493Z,1024.68
2017-05-26T02:23:40.359Z,1024.69
2017-05-26T02:25:02.191Z,1024.71
2017-05-26T02:26:24.010Z,1024.64
2017-05-26T02:27:46.233Z,1024.65
2017-05-26T02:29:08.709Z,1024.6
2017-05-26T02:30:30.323Z,1024.65
2017-05-26T02:31:52.519Z,1024.69
2017-05-26T02:33:14.411Z,1024.64
2017-05-26T02:34:36.882Z,1024.66
2017-05-26T02:35:59.030Z,1024.64
2017-05-26T02:37:21.180Z,1024.65
2017-05-26T02:38:43.701Z,1024.64
2017-05-26T02:40:05.211Z,1024.62
2017-05-26T02:41:27.051Z,1024.59
2017-05-26T02:42:48.988Z,1024.61
2017-05-26T02:44:10.972Z,1024.63
2017-05-26T02:45:32.813Z,1024.66
2017-05-26T02:46:54.458Z,1024.63
2017-05-26T02:48:16.591Z,1024.65
2017-05-26T02:49:38.668Z,1024.63
2017-05-26T02:51:00.555Z,1024.67
2017-05-26T02:52:22.391Z,1024.64
2017-05-26T02:53:44.661Z,1024.68
2017-05-26T02:55:07.001Z,1024.68
2017-05-26T02:56:28.841Z,1024.72
2017-05-26T02:57:50.363Z,1024.71
2017-05-26T02:59:12.530Z,1024.7
2017-05-26T03:00:35.152Z,1024.75
2017-05-26T03:01:57.119Z,1024.69
2017-05-26T03:03:18.363Z,1024.72
2017-05-26T03:04:40.272Z,1024.68
2017-05-26T03:06:02.350Z,1024.65
2017-05-26T03:07:24.503Z,1024.67
2017-05-26T03:08:46.370Z,1024.65
2017-05-26T03:10:07.871Z,1024.64
2017-05-26T03:11:30.058Z,1024.68
2017-05-26T03:12:52.581Z,1024.68
2017-05-26T03:14:14.183Z,1024.69
2017-05-26T03:15:36.103Z,1024.66
2017-05-26T03:16:57.352Z,1024.68
2017-05-26T03:18:18.703Z,1024.69
2017-05-26T03:19:40.222Z,1024.67
2017-05-26T03:21:02.063Z,1024.68
2017-05-26T03:22:24.522Z,1024.69
2017-05-26T03:23:46.142Z,1024.67
2017-05-26T03:25:08.298Z,1024.71
2017-05-26T03:26:30.410Z,1024.77
2017-05-26T03:27:53.144Z,1024.77
2017-05-26T03:29:14.986Z,1024.73
2017-05-26T03:30:36.811Z,1024.7
2017-05-26T03:31:58.694Z,1024.64
2017-05-26T03:33:20.202Z,1024.6
2017-05-26T03:34:42.660Z,1024.61
2017-05-26T03:36:04.920Z,1024.63
2017-05-26T03:37:27.062Z,1024.62
2017-05-26T03:38:49.259Z,1024.65
2017-05-26T03:40:11.410Z,1024.63
2017-05-26T03:41:33.313Z,1024.69
2017-05-26T03:42:55.281Z,1024.64
2017-05-26T03:44:17.114Z,1024.64
2017-05-26T03:45:39.312Z,1024.71
2017-05-26T03:47:01.771Z,1024.75
2017-05-26T03:48:23.601Z,1024.76
2017-05-26T03:49:45.931Z,1024.73
2017-05-26T03:51:07.151Z,1024.76
2017-05-26T03:52:28.349Z,1024.78
2017-05-26T03:53:50.552Z,1024.82
2017-05-26T03:55:12.696Z,1024.77
2017-05-26T03:56:34.215Z,1024.8
2017-05-26T03:57:56.103Z,1024.78
2017-05-26T03:59:17.612Z,1024.82
2017-05-26T04:00:39.795Z,1024.76
2017-05-26T04:02:01.992Z,1024.84
2017-05-26T04:03:24.552Z,1024.77
2017-05-26T04:04:47.062Z,1024.82
2017-05-26T04:06:09.452Z,1024.84
2017-05-26T04:07:31.764Z,1024.85
2017-05-26T04:08:53.409Z,1024.81
2017-05-26T04:10:15.578Z,1024.85
2017-05-26T04:11:37.142Z,1024.84
2017-05-26T04:12:59.302Z,1024.83
2017-05-26T04:14:21.922Z,1024.83
2017-05-26T04:15:44.082Z,1024.89
2017-05-26T04:17:06.481Z,1024.86
2017-05-26T04:18:27.691Z,1024.89
2017-05-26T04:19:49.208Z,1024.9
2017-05-26T04:21:11.021Z,1024.92
2017-05-26T04:22:33.794Z,1024.95
2017-05-26T04:23:56.281Z,1024.97
2017-05-26T04:25:17.859Z,1024.92
2017-05-26T04:26:40.362Z,1024.95
2017-05-26T04:28:02.559Z,1024.92
2017-05-26T04:29:24.486Z,1024.92
2017-05-26T04:30:46.641Z,1024.92
2017-05-26T04:32:08.795Z,1024.89
2017-05-26T04:33:31.153Z,1024.91
2017-05-26T04:34:52.969Z,1024.89
2017-05-26T04:36:14.822Z,1024.88
2017-05-26T04:37:36.663Z,1024.88
2017-05-26T04:38:59.146Z,1024.91
2017-05-26T04:40:21.296Z,1024.91
2017-05-26T04:41:43.423Z,1024.96
2017-05-26T04:43:05.581Z,1024.97
2017-05-26T04:44:27.749Z,1025.03
2017-05-26T04:45:49.263Z,1024.99
2017-05-26T04:47:11.430Z,1025
2017-05-26T04:48:33.580Z,1025.03
2017-05-26T04:49:56.314Z,1024.98
2017-05-26T04:51:18.881Z,1024.98
2017-05-26T04:52:41.052Z,1024.97
2017-05-26T04:54:03.636Z,1024.98
2017-05-26T04:55:25.921Z,1024.97
2017-05-26T04:56:47.749Z,1024.96
2017-05-26T04:58:09.951Z,1024.95
2017-05-26T04:59:32.189Z,1024.92
2017-05-26T05:00:54.301Z,1024.96
2017-05-26T05:02:16.001Z,1024.96
2017-05-26T05:03:38.153Z,1024.96
2017-05-26T05:05:00.301Z,1025.01
2017-05-26T05:06:22.652Z,1025.01
2017-05-26T05:07:44.941Z,1025.04
2017-05-26T05:09:06.451Z,1025
2017-05-26T05:10:28.612Z,1025.04
2017-05-26T05:11:50.471Z,1025.04
2017-05-26T05:13:11.991Z,1025.01
2017-05-26T05:14:33.822Z,1025
2017-05-26T05:15:55.641Z,1024.96
2017-05-26T05:17:17.921Z,1024.96
2017-05-26T05:18:40.532Z,1025.02
2017-05-26T05:20:02.360Z,1025
2017-05-26T05:21:24.212Z,1025.07
2017-05-26T05:22:46.719Z,1025.05
2017-05-26T05:24:08.701Z,1025.09
2017-05-26T05:25:31.221Z,1025.1
2017-05-26T05:26:53.078Z,1025.09
2017-05-26T05:28:15.850Z,1025.07
2017-05-26T05:29:37.424Z,1025.04
2017-05-26T05:30:59.570Z,1025.02
2017-05-26T05:32:21.071Z,1024.99
2017-05-26T05:33:43.679Z,1025.01
2017-05-26T05:35:05.193Z,1024.99
2017-05-26T05:36:26.721Z,1024.99
2017-05-26T05:37:48.557Z,1024.99
2017-05-26T05:39:11.321Z,1025.05
2017-05-26T05:40:33.552Z,1025.02
2017-05-26T05:41:55.701Z,1025.03
2017-05-26T05:43:17.861Z,1025.04
2017-05-26T05:44:40.263Z,1025.04
2017-05-26T05:46:02.418Z,1025.04
2017-05-26T05:47:23.951Z,1024.99
2017-05-26T05:48:45.869Z,1025.02
2017-05-26T05:50:08.842Z,1025.06
2017-05-26T05:51:30.670Z,1025.08
2017-05-26T05:52:52.825Z,1025.1
2017-05-26T05:54:14.671Z,1025.09
2017-05-26T05:55:36.857Z,1025.07
2017-05-26T05:56:58.992Z,1025.08
2017-05-26T05:58:21.152Z,1025.09
2017-05-26T05:59:42.993Z,1025.13
2017-05-26T06:01:05.106Z,1025.13
2017-05-26T06:02:26.972Z,1025.1
2017-05-26T06:03:49.119Z,1025.17
2017-05-26T06:05:10.962Z,1025.17
2017-05-26T06:06:33.417Z,1025.2
2017-05-26T06:07:55.624Z,1025.2
2017-05-26T06:09:17.761Z,1025.26
2017-05-26T06:10:40.242Z,1025.31
2017-05-26T06:12:02.358Z,1025.31
2017-05-26T06:13:24.268Z,1025.28
2017-05-26T06:14:46.948Z,1025.34
2017-05-26T06:16:09.130Z,1025.35
2017-05-26T06:17:31.286Z,1025.38
2017-05-26T06:18:53.439Z,1025.42
2017-05-26T06:20:15.709Z,1025.46
2017-05-26T06:21:37.581Z,1025.46
2017-05-26T06:22:59.995Z,1025.47
2017-05-26T06:24:21.204Z,1025.47
2017-05-26T06:25:43.383Z,1025.54
2017-05-26T06:27:04.892Z,1025.51
2017-05-26T06:28:26.752Z,1025.52
2017-05-26T06:29:48.633Z,1025.55
2017-05-26T06:31:11.213Z,1025.57
2017-05-26T06:32:33.352Z,1025.63
2017-05-26T06:33:55.902Z,1025.6
2017-05-26T06:35:18.130Z,1025.61
2017-05-26T06:36:40.544Z,1025.69
2017-05-26T06:38:02.701Z,1025.65
2017-05-26T06:39:25.209Z,1025.61
2017-05-26T06:40:47.502Z,1025.63
2017-05-26T06:42:10.097Z,1025.63
2017-05-26T06:43:32.054Z,1025.65
2017-05-26T06:44:54.660Z,1025.64
2017-05-26T06:46:17.157Z,1025.64
2017-05-26T06:47:39.628Z,1025.65
2017-05-26T06:49:01.152Z,1025.67
2017-05-26T06:50:23.022Z,1025.71
2017-05-26T06:51:45.186Z,1025.65
2017-05-26T06:53:07.352Z,1025.63
2017-05-26T06:54:29.214Z,1025.66
2017-05-26T06:55:51.632Z,1025.69
2017-05-26T06:57:13.801Z,1025.68
2017-05-26T06:58:36.363Z,1025.69
2017-05-26T06:59:58.834Z,1025.76
2017-05-26T07:01:21.135Z,1025.76
2017-05-26T07:02:42.993Z,1025.73
2017-05-26T07:04:04.546Z,1025.7
2017-05-26T07:05:26.712Z,1025.74
2017-05-26T07:06:48.646Z,1025.76
2017-05-26T07:08:10.157Z,1025.78
2017-05-26T07:09:32.074Z,1025.8
2017-05-26T07:10:54.222Z,1025.78
2017-05-26T07:12:17.128Z,1025.77
2017-05-26T07:13:39.813Z,1025.8
2017-05-26T07:15:01.439Z,1025.79
2017-05-26T07:16:23.583Z,1025.84
2017-05-26T07:17:45.721Z,1025.81
2017-05-26T07:19:07.704Z,1025.77
2017-05-26T07:20:29.869Z,1025.79
2017-05-26T07:21:52.366Z,1025.81
2017-05-26T07:23:14.611Z,1025.77
2017-05-26T07:24:36.867Z,1025.82
2017-05-26T07:25:58.447Z,1025.86
2017-05-26T07:27:20.922Z,1025.86
2017-05-26T07:28:43.422Z,1025.9
2017-05-26T07:30:05.272Z,1025.92
2017-05-26T07:31:27.902Z,1025.89
2017-05-26T07:32:49.745Z,1025.99
2017-05-26T07:34:12.597Z,1025.94
2017-05-26T07:35:34.862Z,1025.95
2017-05-26T07:36:57.094Z,1025.95
2017-05-26T07:38:19.242Z,1025.95
2017-05-26T07:39:41.702Z,1025.89
2017-05-26T07:41:03.684Z,1025.88
2017-05-26T07:42:25.841Z,1025.86
2017-05-26T07:43:47.390Z,1025.89
2017-05-26T07:45:09.816Z,1025.87
2017-05-26T07:46:31.981Z,1025.92
2017-05-26T07:47:53.823Z,1026.03
2017-05-26T07:49:15.354Z,1026.09
2017-05-26T07:50:37.449Z,1025.87
2017-05-26T07:51:59.608Z,1025.85
2017-05-26T07:53:22.113Z,1025.89
2017-05-26T07:54:44.262Z,1025.86
2017-05-26T07:56:06.734Z,1025.88
2017-05-26T07:57:29.232Z,1025.9
2017-05-26T07:58:50.773Z,1025.92
2017-05-26T08:00:13.364Z,1025.9
2017-05-26T08:01:35.582Z,1025.97
2017-05-26T08:02:57.750Z,1026.23
2017-05-26T08:04:19.914Z,1026.19
2017-05-26T08:05:42.123Z,1026.04
2017-05-26T08:07:04.568Z,1026.04
2017-05-26T08:08:26.403Z,1026.03
2017-05-26T08:09:48.253Z,1025.92
2017-05-26T08:11:10.170Z,1025.86
2017-05-26T08:12:32.684Z,1025.91
2017-05-26T08:13:55.173Z,1025.93
2017-05-26T08:15:17.741Z,1025.9
2017-05-26T08:16:39.750Z,1025.95
2017-05-26T08:18:01.299Z,1025.94
2017-05-26T08:19:23.792Z,1026.04
2017-05-26T08:20:45.652Z,1026.04
2017-05-26T08:22:07.501Z,1026.02
2017-05-26T08:23:29.411Z,1025.95
2017-05-26T08:24:51.921Z,1025.83
2017-05-26T08:26:13.517Z,1025.83
2017-05-26T08:27:36.063Z,1025.78
2017-05-26T08:28:58.527Z,1025.83
2017-05-26T08:30:20.384Z,1025.96
2017-05-26T08:31:42.560Z,1025.99
2017-05-26T08:33:04.157Z,1026.01
2017-05-26T08:34:26.661Z,1025.95
2017-05-26T08:35:49.092Z,1025.88
2017-05-26T08:37:10.943Z,1025.89
2017-05-26T08:38:33.496Z,1025.92
2017-05-26T08:39:55.905Z,1025.92
2017-05-26T08:41:18.074Z,1025.96
2017-05-26T08:42:40.283Z,1025.86
2017-05-26T08:44:02.553Z,1025.87
2017-05-26T08:45:25.330Z,1025.85
2017-05-26T08:46:47.489Z,1025.78
2017-05-26T08:48:09.763Z,1025.79
2017-05-26T08:49:31.633Z,1025.84
2017-05-26T08:50:54.625Z,1025.91
2017-05-26T08:52:16.802Z,1025.89
2017-05-26T08:53:39.022Z,1025.76
2017-05-26T08:55:01.199Z,1025.78
2017-05-26T08:56:23.349Z,1025.8
2017-05-26T08:57:45.294Z,1025.91
2017-05-26T08:59:07.782Z,1025.83
2017-05-26T09:00:30.616Z,1025.83
2017-05-26T09:01:54.556Z,1025.74
2017-05-26T09:03:16.400Z,1025.67
2017-05-26T09:04:38.599Z,1025.61
2017-05-26T09:06:00.442Z,1025.6
2017-05-26T09:07:22.871Z,1025.62
2017-05-26T09:08:45.353Z,1025.75
2017-05-26T09:10:07.606Z,1025.75
2017-05-26T09:11:30.087Z,1025.79
2017-05-26T09:12:52.510Z,1025.64
2017-05-26T09:14:15.016Z,1025.6
2017-05-26T09:15:37.502Z,1025.63
2017-05-26T09:16:59.694Z,1025.57
2017-05-26T09:18:21.832Z,1025.59
2017-05-26T09:19:44.373Z,1025.65
2017-05-26T09:21:06.554Z,1025.66
2017-05-26T09:22:28.729Z,1025.61
2017-05-26T09:23:51.554Z,1025.6
2017-05-26T09:25:13.702Z,1025.55
2017-05-26T09:26:36.189Z,1025.52
2017-05-26T09:27:59.042Z,1025.5
2017-05-26T09:29:21.507Z,1025.52
2017-05-26T09:30:44.214Z,1025.46
2017-05-26T09:32:06.147Z,1025.46
2017-05-26T09:33:28.082Z,1025.51
2017-05-26T09:34:50.874Z,1025.51
2017-05-26T09:36:13.365Z,1025.53
2017-05-26T09:37:35.510Z,1025.52
2017-05-26T09:38:57.684Z,1025.54
2017-05-26T09:40:19.868Z,1025.53
2017-05-26T09:41:42.135Z,1025.49
2017-05-26T09:43:04.644Z,1025.5
2017-05-26T09:44:26.174Z,1025.48
2017-05-26T09:45:47.782Z,1025.51
2017-05-26T09:47:10.345Z,1025.53
2017-05-26T09:48:32.848Z,1025.48
2017-05-26T09:49:54.704Z,1025.42
2017-05-26T09:51:17.528Z,1025.38
2017-05-26T09:52:39.697Z,1025.33
2017-05-26T09:54:01.875Z,1025.26
2017-05-26T09:55:24.040Z,1025.28
2017-05-26T09:56:46.186Z,1025.3
2017-05-26T09:58:08.036Z,1025.31
2017-05-26T09:59:30.219Z,1025.29
2017-05-26T10:00:52.785Z,1025.32
2017-05-26T10:02:15.259Z,1025.27
2017-05-26T10:03:39.014Z,1025.21
2017-05-26T10:05:01.158Z,1025.19
2017-05-26T10:06:23.705Z,1025.25
2017-05-26T10:07:46.231Z,1025.31
2017-05-26T10:09:08.405Z,1025.26
2017-05-26T10:10:30.560Z,1025.21
2017-05-26T10:11:52.535Z,1025.26
2017-05-26T10:13:15.123Z,1025.28
2017-05-26T10:14:37.338Z,1025.3
2017-05-26T10:15:59.522Z,1025.26
2017-05-26T10:17:21.701Z,1025.24
2017-05-26T10:18:44.584Z,1025.23
2017-05-26T10:20:05.793Z,1025.23
2017-05-26T10:21:27.646Z,1025.17
2017-05-26T10:22:50.291Z,1025.23
2017-05-26T10:24:13.272Z,1025.16
2017-05-26T10:25:35.687Z,1025.16
2017-05-26T10:26:57.917Z,1025.14
2017-05-26T10:28:20.387Z,1025.16
2017-05-26T10:29:43.155Z,1025.14
2017-05-26T10:31:05.006Z,1025.1
2017-05-26T10:32:27.170Z,1025.08
2017-05-26T10:33:49.803Z,1025
2017-05-26T10:35:12.014Z,1025.03
2017-05-26T10:36:34.220Z,1024.95
2017-05-26T10:37:56.740Z,1024.99
2017-05-26T10:39:18.997Z,1025.02
2017-05-26T10:40:41.628Z,1025.01
2017-05-26T10:42:03.828Z,1025.02
2017-05-26T10:43:25.976Z,1025.07
2017-05-26T10:44:48.147Z,1025.13
2017-05-26T10:46:10.913Z,1025.11
2017-05-26T10:47:33.117Z,1025.07
2017-05-26T10:48:54.651Z,1025
2017-05-26T10:50:16.851Z,1025.04
2017-05-26T10:51:39.012Z,1025.02
2017-05-26T10:53:00.850Z,1025.01
2017-05-26T10:54:23.347Z,1025.05
2017-05-26T10:55:45.607Z,1025.01
2017-05-26T10:57:08.110Z,1025.04
2017-05-26T10:58:29.960Z,1025.08
2017-05-26T10:59:52.462Z,1025.03
2017-05-26T11:01:13.673Z,1024.99
2017-05-26T11:02:35.781Z,1024.96
2017-05-26T11:03:57.627Z,1024.94
2017-05-26T11:05:20.120Z,1024.94
2017-05-26T11:06:42.616Z,1024.9
2017-05-26T11:08:05.103Z,1024.93
2017-05-26T11:09:27.247Z,1024.87
2017-05-26T11:10:49.713Z,1024.88
2017-05-26T11:12:11.579Z,1024.96
2017-05-26T11:13:33.998Z,1024.89
2017-05-26T11:14:56.142Z,1024.84
2017-05-26T11:16:18.727Z,1024.8
2017-05-26T11:17:39.963Z,1024.8
2017-05-26T11:19:02.379Z,1024.8
2017-05-26T11:20:23.606Z,1024.79
2017-05-26T11:21:45.947Z,1024.79
2017-05-26T11:23:08.436Z,1024.8
2017-05-26T11:24:31.416Z,1024.76
2017-05-26T11:25:54.009Z,1024.73
2017-05-26T11:27:16.068Z,1024.73
2017-05-26T11:28:38.021Z,1024.72
2017-05-26T11:30:00.772Z,1024.73
2017-05-26T11:31:23.295Z,1024.72
2017-05-26T11:32:45.447Z,1024.74
2017-05-26T11:34:07.962Z,1024.7
2017-05-26T11:35:31.106Z,1024.7
2017-05-26T11:36:53.758Z,1024.75
2017-05-26T11:38:15.706Z,1024.74
2017-05-26T11:39:37.558Z,1024.74
2017-05-26T11:41:00.080Z,1024.77
2017-05-26T11:42:22.677Z,1024.69
2017-05-26T11:43:45.141Z,1024.64
2017-05-26T11:45:07.317Z,1024.67
2017-05-26T11:46:29.434Z,1024.64
2017-05-26T11:47:52.034Z,1024.58
2017-05-26T11:49:14.192Z,1024.62
2017-05-26T11:50:36.038Z,1024.56
2017-05-26T11:51:58.197Z,1024.58
2017-05-26T11:53:19.714Z,1024.62
2017-05-26T11:54:41.250Z,1024.61
2017-05-26T11:56:03.501Z,1024.59
2017-05-26T11:57:26.060Z,1024.62
2017-05-26T11:58:48.213Z,1024.55
2017-05-26T12:00:10.395Z,1024.58
2017-05-26T12:01:32.958Z,1024.61
2017-05-26T12:02:55.210Z,1024.57
2017-05-26T12:04:17.752Z,1024.52
2017-05-26T12:05:39.901Z,1024.52
2017-05-26T12:07:02.373Z,1024.59
2017-05-26T12:08:25.423Z,1024.53
2017-05-26T12:09:47.248Z,1024.47
2017-05-26T12:11:09.795Z,1024.48
2017-05-26T12:12:31.976Z,1024.44
2017-05-26T12:13:54.447Z,1024.45
2017-05-26T12:15:16.425Z,1024.48
2017-05-26T12:16:38.592Z,1024.46
2017-05-26T12:18:01.224Z,1024.47
2017-05-26T12:19:22.996Z,1024.47
2017-05-26T12:20:45.571Z,1024.48
2017-05-26T12:22:07.731Z,1024.42
2017-05-26T12:23:29.436Z,1024.32
2017-05-26T12:24:51.883Z,1024.38
2017-05-26T12:26:14.063Z,1024.34
2017-05-26T12:27:36.094Z,1024.36
2017-05-26T12:28:58.274Z,1024.31
2017-05-26T12:30:20.800Z,1024.29
2017-05-26T12:31:43.332Z,1024.3
2017-05-26T12:33:05.672Z,1024.25
2017-05-26T12:34:27.862Z,1024.3
2017-05-26T12:35:50.089Z,1024.27
2017-05-26T12:37:12.285Z,1024.23
2017-05-26T12:38:34.784Z,1024.24
2017-05-26T12:39:56.972Z,1024.22
2017-05-26T12:41:19.128Z,1024.22
2017-05-26T12:42:41.383Z,1024.21
2017-05-26T12:44:03.894Z,1024.15
2017-05-26T12:45:26.453Z,1024.13
2017-05-26T12:46:48.913Z,1024.08
2017-05-26T12:48:11.410Z,1024.14
2017-05-26T12:49:33.259Z,1024.1
2017-05-26T12:50:55.243Z,1024.11
2017-05-26T12:52:17.474Z,1024.08
2017-05-26T12:53:39.954Z,1024.11
2017-05-26T12:55:02.437Z,1024.17
2017-05-26T12:56:25.013Z,1024.08
2017-05-26T12:57:47.437Z,1024.11
2017-05-26T12:59:09.917Z,1024.07
2017-05-26T13:00:32.418Z,1024.13
2017-05-26T13:01:54.922Z,1024.1
2017-05-26T13:03:17.163Z,1024.08
2017-05-26T13:04:39.095Z,1024.01
2017-05-26T13:06:01.592Z,1024.05
2017-05-26T13:07:23.439Z,1024.04
2017-05-26T13:08:45.923Z,1024.03
2017-05-26T13:10:08.118Z,1024.07
2017-05-26T13:11:30.296Z,1024.03
2017-05-26T13:12:52.792Z,1024.06
2017-05-26T13:14:14.890Z,1024.04
2017-05-26T13:15:36.419Z,1024.05
2017-05-26T13:16:58.951Z,1024.02
2017-05-26T13:18:21.130Z,1024.06
2017-05-26T13:19:42.927Z,1024.06
2017-05-26T13:21:05.405Z,1024.07
2017-05-26T13:22:26.956Z,1023.97
2017-05-26T13:23:49.292Z,1023.95
2017-05-26T13:25:12.094Z,1023.95
2017-05-26T13:26:34.271Z,1023.92
2017-05-26T13:27:56.891Z,1023.86
2017-05-26T13:29:18.751Z,1023.94
2017-05-26T13:30:41.374Z,1023.9
2017-05-26T13:32:03.412Z,1023.87
2017-05-26T13:33:25.603Z,1023.86
2017-05-26T13:34:47.797Z,1023.82
2017-05-26T13:36:10.282Z,1023.83
2017-05-26T13:37:32.154Z,1023.85
2017-05-26T13:38:54.403Z,1023.83
2017-05-26T13:40:16.261Z,1023.83
2017-05-26T13:41:38.583Z,1023.82
2017-05-26T13:43:00.753Z,1023.95
2017-05-26T13:44:23.073Z,1023.88
2017-05-26T13:45:45.558Z,1023.91
2017-05-26T13:47:07.745Z,1023.83
2017-05-26T13:48:30.082Z,1023.87
2017-05-26T13:49:52.326Z,1023.81
2017-05-26T13:51:14.420Z,1023.87
2017-05-26T13:52:36.641Z,1023.85
2017-05-26T13:53:58.842Z,1023.75
2017-05-26T13:55:21.342Z,1023.77
2017-05-26T13:56:43.901Z,1023.71
2017-05-26T13:58:06.560Z,1023.77
2017-05-26T13:59:29.272Z,1023.74
2017-05-26T14:00:51.462Z,1023.68
2017-05-26T14:02:14.039Z,1023.63
2017-05-26T14:03:36.281Z,1023.58
2017-05-26T14:04:58.574Z,1023.55
2017-05-26T14:06:21.078Z,1023.56
2017-05-26T14:07:43.582Z,1023.54
2017-05-26T14:09:05.778Z,1023.5
2017-05-26T14:10:28.271Z,1023.53
2017-05-26T14:11:50.782Z,1023.51
2017-05-26T14:13:12.961Z,1023.57
2017-05-26T14:14:35.810Z,1023.58
2017-05-26T14:15:57.691Z,1023.54
2017-05-26T14:17:20.197Z,1023.53
2017-05-26T14:18:42.177Z,1023.57
2017-05-26T14:20:05.033Z,1023.55
2017-05-26T14:21:27.205Z,1023.52
2017-05-26T14:22:49.747Z,1023.47
2017-05-26T14:24:12.073Z,1023.49
2017-05-26T14:25:34.998Z,1023.4
2017-05-26T14:26:57.283Z,1023.42
2017-05-26T14:28:19.213Z,1023.41
2017-05-26T14:29:41.563Z,1023.41
2017-05-26T14:31:03.752Z,1023.45
2017-05-26T14:32:25.914Z,1023.45
2017-05-26T14:33:48.078Z,1023.39
2017-05-26T14:35:10.330Z,1023.41
2017-05-26T14:36:32.871Z,1023.42
2017-05-26T14:37:55.355Z,1023.41
2017-05-26T14:39:16.889Z,1023.37
2017-05-26T14:40:39.048Z,1023.35
2017-05-26T14:42:01.829Z,1023.36
2017-05-26T14:43:23.998Z,1023.32
2017-05-26T14:44:45.882Z,1023.32
2017-05-26T14:46:08.410Z,1023.33
2017-05-26T14:47:31.321Z,1023.32
2017-05-26T14:48:53.509Z,1023.28
2017-05-26T14:50:16.125Z,1023.28
2017-05-26T14:51:38.619Z,1023.31
2017-05-26T14:53:01.492Z,1023.28
2017-05-26T14:54:23.348Z,1023.28
2017-05-26T14:55:44.880Z,1023.36
2017-05-26T14:57:06.730Z,1023.32
2017-05-26T14:58:28.932Z,1023.35
2017-05-26T14:59:51.134Z,1023.34
2017-05-26T15:01:13.676Z,1023.4
2017-05-26T15:02:36.212Z,1023.34
2017-05-26T15:03:58.752Z,1023.28
2017-05-26T15:05:21.258Z,1023.28
2017-05-26T15:06:43.130Z,1023.27
2017-05-26T15:08:04.986Z,1023.31
2017-05-26T15:09:27.797Z,1023.24
2017-05-26T15:10:49.449Z,1023.24
2017-05-26T15:12:11.663Z,1023.29
2017-05-26T15:13:34.213Z,1023.28
2017-05-26T15:14:57.123Z,1023.24
2017-05-26T15:16:19.331Z,1023.27
2017-05-26T15:17:41.713Z,1023.25
2017-05-26T15:19:04.193Z,1023.24
2017-05-26T15:20:27.061Z,1023.26
2017-05-26T15:21:49.226Z,1023.2
2017-05-26T15:23:11.444Z,1023.16
2017-05-26T15:24:33.945Z,1023.16
2017-05-26T15:25:56.548Z,1023.19
2017-05-26T15:27:18.741Z,1023.17
2017-05-26T15:28:40.935Z,1023.16
2017-05-26T15:30:03.449Z,1023.1
2017-05-26T15:31:26.281Z,1023.12
2017-05-26T15:32:49.876Z,1023.15
2017-05-26T15:34:12.823Z,1023.14
2017-05-26T15:35:35.363Z,1023.1
2017-05-26T15:36:57.530Z,1023.08
2017-05-26T15:38:20.056Z,1023.07
2017-05-26T15:39:42.321Z,1023.09
2017-05-26T15:41:04.678Z,1023.1
2017-05-26T15:42:27.558Z,1023.1
2017-05-26T15:43:49.569Z,1023.09
2017-05-26T15:45:13.296Z,1023.05
2017-05-26T15:46:35.783Z,1023.04
2017-05-26T15:47:58.663Z,1022.97
2017-05-26T15:49:21.174Z,1022.95
2017-05-26T15:50:43.641Z,1022.99
2017-05-26T15:52:05.960Z,1022.99
2017-05-26T15:53:28.061Z,1022.99
2017-05-26T15:54:49.913Z,1023.02
2017-05-26T15:56:11.498Z,1022.97
2017-05-26T15:57:33.791Z,1023.03
2017-05-26T15:58:56.247Z,1023
2017-05-26T16:00:18.811Z,1022.99
2017-05-26T16:01:40.667Z,1022.95
2017-05-26T16:03:02.550Z,1022.98
2017-05-26T16:04:25.105Z,1022.95
2017-05-26T16:05:47.703Z,1023
2017-05-26T16:07:09.999Z,1022.94
2017-05-26T16:08:32.194Z,1022.96
2017-05-26T16:09:54.999Z,1022.96
2017-05-26T16:11:17.211Z,1022.91
2017-05-26T16:12:39.471Z,1022.95
2017-05-26T16:14:01.341Z,1022.91
2017-05-26T16:15:23.819Z,1022.9
2017-05-26T16:16:46.069Z,1022.92
2017-05-26T16:18:08.573Z,1022.95
2017-05-26T16:19:31.059Z,1022.84
2017-05-26T16:20:53.640Z,1022.91
2017-05-26T16:22:16.176Z,1022.91
2017-05-26T16:23:38.465Z,1022.94
2017-05-26T16:25:00.968Z,1022.86
2017-05-26T16:26:23.736Z,1022.88
2017-05-26T16:27:45.984Z,1022.84
2017-05-26T16:29:08.162Z,1022.84
2017-05-26T16:30:30.557Z,1022.89
2017-05-26T16:31:53.366Z,1022.82
2017-05-26T16:33:15.374Z,1022.86
2017-05-26T16:34:37.882Z,1022.84
2017-05-26T16:36:00.069Z,1022.83
2017-05-26T16:37:22.188Z,1022.85